Time;durP1;ratioP1;P1;durP2;ratioP2;P2;SDS_P1;SDS_P2;PMS_P1;PMS_P2;Temp;Humidity;BMP_temperature;BMP_pressure;BME280_temperature;BME280_humidity;BME280_pressure;Samples;Min_cycle;Max_cycle;Signal;HPM_P1;HPM_P2
2022/11/24 00:00:50;;;;;;;28.08;16.25;;;;;;;;;;5095604;28;20459;-85
2022/11/24 00:03:17;;;;;;;29.35;16.33;;;;;;;;;;5095788;28;20456;-85
2022/11/24 00:05:45;;;;;;;26.00;14.63;;;;;;;;;;5095765;28;20040;-85
2022/11/24 00:08:12;;;;;;;15.05;10.55;;;;;;;;;;5096430;28;20135;-85
2022/11/24 00:10:39;;;;;;;13.35;9.93;;;;;;;;;;5095040;28;20542;-84
2022/11/24 00:13:07;;;;;;;16.48;11.43;;;;;;;;;;5095295;28;20389;-85
2022/11/24 00:15:34;;;;;;;16.15;11.02;;;;;;;;;;5096428;28;20044;-85
2022/11/24 00:18:01;;;;;;;10.05;8.00;;;;;;;;;;5095234;28;20051;-84
2022/11/24 00:20:28;;;;;;;9.38;7.65;;;;;;;;;;5094946;28;20135;-85
2022/11/24 00:22:56;;;;;;;7.35;6.65;;;;;;;;;;5094998;28;20051;-85
2022/11/24 00:25:23;;;;;;;6.40;5.80;;;;;;;;;;5095936;28;20044;-84
2022/11/24 00:27:51;;;;;;;6.82;6.22;;;;;;;;;;5095096;28;20059;-85
2022/11/24 00:30:19;;;;;;;6.85;6.22;;;;;;;;;;5095064;28;20043;-85
2022/11/24 00:32:46;;;;;;;5.95;5.45;;;;;;;;;;5095153;28;20044;-85
2022/11/24 00:35:13;;;;;;;5.53;5.05;;;;;;;;;;5095867;28;20059;-85
2022/11/24 00:37:40;;;;;;;6.32;5.63;;;;;;;;;;5094928;28;20048;-84
2022/11/24 00:40:08;;;;;;;5.50;4.78;;;;;;;;;;5095627;28;20051;-85
2022/11/24 00:42:35;;;;;;;5.18;4.78;;;;;;;;;;5099325;28;20059;-86
2022/11/24 00:45:02;;;;;;;5.50;5.00;;;;;;;;;;5111813;28;20082;-85
2022/11/24 00:47:40;;;;;;;5.03;4.63;;;;;;;;;;5094899;28;20287;-84
2022/11/24 00:50:07;;;;;;;5.22;4.82;;;;;;;;;;5094378;28;20066;-85
2022/11/24 00:52:34;;;;;;;4.95;4.55;;;;;;;;;;5094703;28;20137;-85
2022/11/24 00:55:01;;;;;;;5.68;5.18;;;;;;;;;;5094391;28;20058;-85
2022/11/24 00:57:29;;;;;;;5.72;5.22;;;;;;;;;;5094348;28;20491;-85
2022/11/24 00:59:56;;;;;;;6.07;5.57;;;;;;;;;;5095459;28;20048;-85
2022/11/24 01:02:23;;;;;;;6.45;5.82;;;;;;;;;;5093810;28;20055;-85
2022/11/24 01:04:50;;;;;;;6.55;5.88;;;;;;;;;;5096000;28;20090;-85
2022/11/24 01:07:18;;;;;;;6.63;5.78;;;;;;;;;;5094359;28;20048;-86
2022/11/24 01:09:45;;;;;;;7.85;6.20;;;;;;;;;;5094303;28;20492;-86
2022/11/24 01:12:12;;;;;;;7.25;6.00;;;;;;;;;;5094256;28;20079;-84
2022/11/24 01:14:39;;;;;;;6.60;5.60;;;;;;;;;;5094150;28;20040;-86
2022/11/24 01:17:07;;;;;;;7.55;6.05;;;;;;;;;;5094031;28;20488;-86
2022/11/24 01:19:34;;;;;;;6.40;5.38;;;;;;;;;;5094030;28;20127;-85
2022/11/24 01:22:01;;;;;;;5.88;5.38;;;;;;;;;;5094046;28;20083;-86
2022/11/24 01:24:28;;;;;;;6.10;5.50;;;;;;;;;;5094022;28;20055;-86
2022/11/24 01:26:56;;;;;;;7.68;5.82;;;;;;;;;;5094085;28;20047;-87
2022/11/24 01:29:24;;;;;;;6.97;6.15;;;;;;;;;;5094183;28;20504;-86
2022/11/24 01:31:51;;;;;;;9.57;5.88;;;;;;;;;;5093993;28;20420;-86
2022/11/24 01:34:19;;;;;;;7.68;5.57;;;;;;;;;;5095037;28;20555;-86
2022/11/24 01:36:46;;;;;;;7.53;5.93;;;;;;;;;;5094006;28;20050;-87
2022/11/24 01:39:13;;;;;;;7.57;6.20;;;;;;;;;;5094685;28;20134;-86
2022/11/24 01:41:41;;;;;;;6.88;6.15;;;;;;;;;;5093894;28;20040;-87
2022/11/24 01:44:21;;;;;;;7.82;6.00;;;;;;;;;;5094738;28;20506;-86
2022/11/24 01:46:51;;;;;;;7.32;6.38;;;;;;;;;;5093554;28;20500;-87
2022/11/24 01:49:21;;;;;;;8.27;6.22;;;;;;;;;;5093821;28;20051;-87
2022/11/24 01:51:59;;;;;;;9.00;6.50;;;;;;;;;;5094232;28;20131;-86
2022/11/24 01:54:30;;;;;;;7.68;6.90;;;;;;;;;;5094413;28;20177;-87
2022/11/24 01:57:02;;;;;;;7.88;6.80;;;;;;;;;;5103494;28;20059;-88
2022/11/24 01:59:30;;;;;;;9.75;7.90;;;;;;;;;;5110145;28;20086;-88
2022/11/24 02:01:57;;;;;;;9.77;8.07;;;;;;;;;;5095073;28;20056;-88
2022/11/24 02:04:26;;;;;;;8.45;7.18;;;;;;;;;;5093899;28;20044;-87
2022/11/24 02:06:56;;;;;;;11.82;8.50;;;;;;;;;;5093800;28;20056;-88
2022/11/24 02:09:25;;;;;;;13.98;8.75;;;;;;;;;;5093405;28;20058;-88
2022/11/24 02:11:54;;;;;;;11.35;8.70;;;;;;;;;;5093766;28;20377;-87
2022/11/24 02:14:23;;;;;;;11.20;8.68;;;;;;;;;;5092695;28;20056;-88
2022/11/24 02:16:51;;;;;;;11.80;7.90;;;;;;;;;;5093749;28;20058;-88
2022/11/24 02:19:34;;;;;;;10.93;7.57;;;;;;;;;;5093680;28;20385;-88
2022/11/24 02:22:02;;;;;;;8.45;7.50;;;;;;;;;;5093591;28;20058;-88
2022/11/24 02:24:40;;;;;;;8.57;6.97;;;;;;;;;;5093441;28;20052;-89
2022/11/24 02:27:09;;;;;;;11.10;7.93;;;;;;;;;;5093483;28;20067;-88
2022/11/24 02:29:37;;;;;;;8.55;7.15;;;;;;;;;;5093203;28;20603;-88
2022/11/24 02:32:06;;;;;;;9.75;7.55;;;;;;;;;;5093448;28;20048;-88
2022/11/24 02:34:34;;;;;;;8.88;6.78;;;;;;;;;;5093500;28;20415;-88
2022/11/24 02:37:01;;;;;;;11.48;7.18;;;;;;;;;;5093175;28;20087;-88
2022/11/24 02:39:28;;;;;;;11.10;6.95;;;;;;;;;;5093093;28;20048;-88
2022/11/24 02:42:00;;;;;;;8.50;7.03;;;;;;;;;;5094195;28;20408;-88
2022/11/24 02:44:30;;;;;;;8.85;7.03;;;;;;;;;;5092707;28;20062;-88
2022/11/24 02:47:08;;;;;;;8.63;6.75;;;;;;;;;;5092904;28;20044;-88
2022/11/24 02:49:36;;;;;;;10.13;6.70;;;;;;;;;;5092853;28;20052;-89
2022/11/24 02:52:03;;;;;;;6.70;5.78;;;;;;;;;;5094133;28;20054;-88
2022/11/24 02:54:30;;;;;;;7.80;6.15;;;;;;;;;;5081197;28;20045;-88
2022/11/24 02:56:58;;;;;;;6.72;5.95;;;;;;;;;;5072614;28;20052;-88
2022/11/24 02:59:26;;;;;;;5.10;4.60;;;;;;;;;;5073411;28;20048;-88
2022/11/24 03:01:53;;;;;;;8.48;5.93;;;;;;;;;;5072244;28;20048;-88
2022/11/24 03:04:21;;;;;;;6.05;5.43;;;;;;;;;;5073232;28;20064;-89
2022/11/24 03:06:48;;;;;;;5.82;4.72;;;;;;;;;;5072627;28;20436;-88
2022/11/24 03:09:15;;;;;;;3.72;3.33;;;;;;;;;;5073122;28;20052;-88
2022/11/24 03:11:43;;;;;;;4.03;3.72;;;;;;;;;;5081280;28;20035;-89
2022/11/24 03:14:10;;;;;;;4.78;3.90;;;;;;;;;;5083877;28;20143;-88
2022/11/24 03:16:37;;;;;;;7.00;3.88;;;;;;;;;;5073627;28;20066;-88
2022/11/24 03:19:05;;;;;;;8.63;4.47;;;;;;;;;;5073292;28;20045;-89
2022/11/24 03:21:32;;;;;;;6.10;4.07;;;;;;;;;;5073346;28;20044;-88
2022/11/24 03:23:59;;;;;;;4.18;3.78;;;;;;;;;;5072088;28;20056;-88
2022/11/24 03:26:26;;;;;;;5.35;4.13;;;;;;;;;;5077373;28;20055;-88
2022/11/24 03:28:56;;;;;;;6.32;3.92;;;;;;;;;;5075950;28;20049;-86
2022/11/24 03:31:24;;;;;;;8.07;4.53;;;;;;;;;;5077189;28;20044;-88
2022/11/24 03:33:51;;;;;;;9.70;4.53;;;;;;;;;;5077449;28;20091;-88
2022/11/24 03:36:18;;;;;;;6.53;4.40;;;;;;;;;;5075845;28;20051;-89
2022/11/24 03:38:46;;;;;;;7.45;4.93;;;;;;;;;;5077241;28;20447;-89
2022/11/24 03:41:13;;;;;;;6.90;4.40;;;;;;;;;;5076318;28;20135;-89
2022/11/24 03:43:40;;;;;;;5.97;3.60;;;;;;;;;;5075586;28;20070;-88
2022/11/24 03:46:10;;;;;;;8.63;4.65;;;;;;;;;;5075564;28;20045;-88
2022/11/24 03:48:38;;;;;;;7.40;4.13;;;;;;;;;;5077147;28;20048;-88
2022/11/24 03:51:05;;;;;;;5.65;4.95;;;;;;;;;;5076050;28;20067;-88
2022/11/24 03:53:33;;;;;;;7.32;4.57;;;;;;;;;;5075773;28;20048;-88
2022/11/24 03:56:03;;;;;;;5.25;4.68;;;;;;;;;;5076854;28;20055;-88
2022/11/24 03:58:31;;;;;;;9.45;5.32;;;;;;;;;;5075747;28;20052;-88
2022/11/24 04:00:58;;;;;;;6.00;5.07;;;;;;;;;;5075459;28;20045;-88
2022/11/24 04:03:25;;;;;;;8.40;5.30;;;;;;;;;;5075402;28;20139;-88
2022/11/24 04:05:53;;;;;;;19.17;12.80;;;;;;;;;;5075600;28;20048;-88
2022/11/24 04:08:20;;;;;;;13.00;9.35;;;;;;;;;;5075586;28;20048;-87
2022/11/24 04:10:51;;;;;;;9.00;7.45;;;;;;;;;;5075706;28;20099;-88
2022/11/24 04:13:20;;;;;;;11.45;7.30;;;;;;;;;;5076472;28;20052;-88
2022/11/24 04:15:47;;;;;;;10.15;6.30;;;;;;;;;;5076115;28;20056;-88
2022/11/24 04:18:14;;;;;;;9.95;6.68;;;;;;;;;;5075600;28;20067;-88
2022/11/24 04:20:42;;;;;;;13.45;7.10;;;;;;;;;;5075494;28;20056;-89
2022/11/24 04:23:09;;;;;;;9.05;5.63;;;;;;;;;;5075567;28;20050;-88
2022/11/24 04:25:37;;;;;;;8.25;6.18;;;;;;;;;;5082819;28;20031;-89
2022/11/24 04:28:05;;;;;;;16.45;9.18;;;;;;;;;;5091270;28;20050;-88
2022/11/24 04:30:32;;;;;;;17.85;8.40;;;;;;;;;;5076241;28;20052;-89
2022/11/24 04:32:59;;;;;;;12.13;7.80;;;;;;;;;;5075317;28;20045;-88
2022/11/24 04:35:27;;;;;;;17.55;11.02;;;;;;;;;;5074323;28;20056;-88
2022/11/24 04:37:54;;;;;;;12.23;9.50;;;;;;;;;;5075109;28;20047;-88
2022/11/24 04:40:21;;;;;;;15.50;7.70;;;;;;;;;;5075446;28;20428;-87
2022/11/24 04:42:53;;;;;;;7.95;6.25;;;;;;;;;;5081495;28;20048;-88
2022/11/24 04:45:21;;;;;;;6.53;5.38;;;;;;;;;;5082783;28;20080;-88
2022/11/24 04:47:48;;;;;;;7.63;5.53;;;;;;;;;;5079236;28;20060;-88
2022/11/24 04:50:16;;;;;;;7.50;4.72;;;;;;;;;;5078213;28;20508;-89
2022/11/24 04:52:43;;;;;;;7.00;4.32;;;;;;;;;;5078577;28;20048;-88
2022/11/24 04:55:10;;;;;;;10.85;6.35;;;;;;;;;;5078456;28;20048;-88
2022/11/24 04:57:37;;;;;;;9.70;6.07;;;;;;;;;;5078387;28;20048;-89
2022/11/24 05:00:05;;;;;;;9.32;5.50;;;;;;;;;;5078128;28;20048;-88
2022/11/24 05:02:32;;;;;;;7.72;5.05;;;;;;;;;;5078100;28;20052;-89
2022/11/24 05:04:59;;;;;;;8.05;5.65;;;;;;;;;;5078190;28;20399;-89
2022/11/24 05:07:27;;;;;;;10.75;5.72;;;;;;;;;;5078851;28;20052;-88
2022/11/24 05:12:40;;;;;;;12.68;5.22;;;;;;;;;;5096084;28;20052;-88
2022/11/24 05:15:10;;;;;;;9.30;5.53;;;;;;;;;;5078130;28;20055;-88
2022/11/24 05:17:38;;;;;;;16.23;6.75;;;;;;;;;;5077804;28;20051;-88
2022/11/24 05:20:07;;;;;;;14.02;5.40;;;;;;;;;;5077809;28;20048;-88
2022/11/24 05:22:34;;;;;;;9.43;6.25;;;;;;;;;;5078194;28;20058;-88
2022/11/24 05:25:01;;;;;;;15.88;7.10;;;;;;;;;;5081569;28;20062;-89
2022/11/24 05:27:28;;;;;;;10.63;6.20;;;;;;;;;;5077854;28;20429;-88
2022/11/24 05:29:56;;;;;;;9.20;5.65;;;;;;;;;;5077763;28;20062;-87
2022/11/24 05:32:23;;;;;;;8.00;5.00;;;;;;;;;;5077747;28;20047;-88
2022/11/24 05:34:51;;;;;;;8.80;6.00;;;;;;;;;;5077427;28;20480;-88
2022/11/24 05:37:19;;;;;;;13.60;5.90;;;;;;;;;;5078057;28;20082;-88
2022/11/24 05:39:46;;;;;;;12.45;6.03;;;;;;;;;;5086297;28;20047;-88
2022/11/24 05:44:59;;;;;;;22.75;13.30;;;;;;;;;;5094707;28;20139;-88
2022/11/24 05:47:27;;;;;;;18.85;13.10;;;;;;;;;;5076889;28;20067;-88
2022/11/24 05:49:54;;;;;;;19.77;10.63;;;;;;;;;;5077339;28;20504;-88
2022/11/24 05:52:21;;;;;;;12.10;8.88;;;;;;;;;;5094659;28;20048;-88
2022/11/24 05:54:48;;;;;;;15.18;8.45;;;;;;;;;;5076762;28;20050;-88
2022/11/24 05:57:16;;;;;;;12.77;5.93;;;;;;;;;;5077076;28;20056;-88
2022/11/24 05:59:43;;;;;;;13.25;7.93;;;;;;;;;;5077031;28;20048;-88
2022/11/24 06:02:11;;;;;;;26.77;10.90;;;;;;;;;;5077021;28;20054;-89
2022/11/24 06:04:38;;;;;;;20.52;10.15;;;;;;;;;;5076640;28;20060;-88
2022/11/24 06:07:10;;;;;;;12.50;8.50;;;;;;;;;;5077015;28;20048;-88
2022/11/24 06:09:41;;;;;;;21.58;11.77;;;;;;;;;;5076575;28;20149;-89
2022/11/24 06:12:09;;;;;;;15.80;8.20;;;;;;;;;;5075235;28;20094;-89
2022/11/24 06:14:37;;;;;;;20.92;10.82;;;;;;;;;;5094588;28;20040;-89
2022/11/24 06:17:04;;;;;;;33.17;13.05;;;;;;;;;;5076993;28;20242;-90
2022/11/24 06:19:31;;;;;;;29.60;12.40;;;;;;;;;;5076890;28;20039;-89
2022/11/24 06:21:58;;;;;;;27.73;10.50;;;;;;;;;;5076789;28;20071;-89
2022/11/24 06:24:26;;;;;;;18.55;9.05;;;;;;;;;;5076500;28;20051;-89
2022/11/24 06:26:53;;;;;;;27.52;10.77;;;;;;;;;;5076795;28;20055;-89
2022/11/24 06:29:20;;;;;;;21.88;9.40;;;;;;;;;;5076838;28;20048;-88
2022/11/24 06:31:47;;;;;;;25.77;9.45;;;;;;;;;;5076841;28;20071;-89
2022/11/24 06:34:15;;;;;;;25.02;10.45;;;;;;;;;;5076490;28;20047;-88
2022/11/24 06:36:42;;;;;;;27.77;14.82;;;;;;;;;;5076919;28;20066;-89
2022/11/24 06:39:09;;;;;;;34.13;16.67;;;;;;;;;;5076713;28;20055;-89
2022/11/24 06:41:36;;;;;;;44.90;24.00;;;;;;;;;;5094720;28;20075;-89
2022/11/24 06:44:04;;;;;;;42.95;23.73;;;;;;;;;;5076686;28;20052;-88
2022/11/24 06:46:31;;;;;;;39.33;22.45;;;;;;;;;;5094450;28;20056;-89
2022/11/24 06:48:59;;;;;;;33.78;19.52;;;;;;;;;;5094542;28;20059;-89
2022/11/24 06:51:26;;;;;;;30.88;18.92;;;;;;;;;;5077460;28;20056;-89
2022/11/24 06:53:54;;;;;;;39.95;21.38;;;;;;;;;;5105899;28;20032;-89
2022/11/24 06:56:21;;;;;;;33.70;20.38;;;;;;;;;;5102972;28;20079;-89
2022/11/24 06:58:49;;;;;;;25.25;14.85;;;;;;;;;;5075468;28;20052;-88
2022/11/24 07:01:21;;;;;;;35.47;16.83;;;;;;;;;;5075890;28;20048;-89
2022/11/24 07:03:49;;;;;;;32.50;11.27;;;;;;;;;;5093629;28;20058;-89
2022/11/24 07:06:17;;;;;;;26.15;13.15;;;;;;;;;;5076051;28;20044;-89
2022/11/24 07:08:45;;;;;;;30.90;17.10;;;;;;;;;;5075916;28;20051;-89
2022/11/24 07:11:14;;;;;;;36.40;18.98;;;;;;;;;;5076105;28;20048;-89
2022/11/24 07:13:42;;;;;;;27.23;13.23;;;;;;;;;;5076025;28;20047;-89
2022/11/24 07:16:10;;;;;;;22.70;11.25;;;;;;;;;;5093522;28;20063;-89
2022/11/24 07:18:37;;;;;;;23.92;12.95;;;;;;;;;;5075853;28;20048;-88
2022/11/24 07:21:05;;;;;;;17.65;10.45;;;;;;;;;;5075859;28;20488;-88
2022/11/24 07:23:32;;;;;;;23.45;10.98;;;;;;;;;;5075787;28;20040;-88
2022/11/24 07:26:02;;;;;;;40.33;18.05;;;;;;;;;;5075715;28;20056;-89
2022/11/24 07:28:33;;;;;;;32.90;15.90;;;;;;;;;;5076432;28;20052;-88
2022/11/24 07:31:07;;;;;;;38.17;15.98;;;;;;;;;;5076032;28;20048;-89
2022/11/24 07:33:34;;;;;;;35.80;15.23;;;;;;;;;;5093528;28;20075;-89
2022/11/24 07:36:03;;;;;;;33.13;14.02;;;;;;;;;;5075565;28;20060;-89
2022/11/24 07:38:31;;;;;;;32.83;15.68;;;;;;;;;;5075680;28;20484;-89
2022/11/24 07:41:00;;;;;;;23.45;12.30;;;;;;;;;;5075725;28;20048;-89
2022/11/24 07:43:27;;;;;;;31.50;12.35;;;;;;;;;;5075819;28;20044;-90
2022/11/24 07:45:54;;;;;;;27.67;13.77;;;;;;;;;;5075472;28;20568;-89
2022/11/24 07:48:22;;;;;;;27.25;12.50;;;;;;;;;;5075592;28;20051;-89
2022/11/24 07:50:49;;;;;;;34.92;15.00;;;;;;;;;;5075497;28;20055;-89
2022/11/24 07:53:22;;;;;;;24.00;11.07;;;;;;;;;;5076610;28;20054;-89
2022/11/24 07:55:54;;;;;;;31.40;12.48;;;;;;;;;;5075611;28;20067;-90
2022/11/24 07:58:22;;;;;;;29.52;14.35;;;;;;;;;;5075892;28;20052;-89
2022/11/24 08:00:49;;;;;;;22.95;12.85;;;;;;;;;;5075879;28;20067;-89
2022/11/24 08:03:16;;;;;;;25.90;13.20;;;;;;;;;;5078699;28;20047;-90
2022/11/24 08:05:44;;;;;;;41.40;16.55;;;;;;;;;;5088052;28;20051;-89
2022/11/24 08:08:32;;;;;;;38.38;15.68;;;;;;;;;;5092145;28;20040;-89
2022/11/24 08:11:06;;;;;;;42.15;17.02;;;;;;;;;;5079063;28;20137;-89
2022/11/24 08:13:34;;;;;;;28.90;13.80;;;;;;;;;;5079864;28;20051;-90
2022/11/24 08:16:09;;;;;;;49.30;18.85;;;;;;;;;;5080056;28;20052;-89
2022/11/24 08:18:37;;;;;;;32.78;14.40;;;;;;;;;;5079613;28;20498;-89
2022/11/24 08:21:04;;;;;;;41.33;15.95;;;;;;;;;;5079168;28;20048;-89
2022/11/24 08:23:32;;;;;;;35.33;16.98;;;;;;;;;;5078986;28;20047;-89
2022/11/24 08:26:03;;;;;;;36.28;17.45;;;;;;;;;;5078680;28;20048;-89
2022/11/24 08:28:31;;;;;;;27.02;13.60;;;;;;;;;;5078902;28;20135;-89
2022/11/24 08:31:01;;;;;;;25.50;13.55;;;;;;;;;;5078771;28;20101;-89
2022/11/24 08:33:29;;;;;;;42.92;18.77;;;;;;;;;;5078983;28;20048;-89
2022/11/24 08:35:56;;;;;;;26.88;14.35;;;;;;;;;;5078725;28;20055;-89
2022/11/24 08:38:23;;;;;;;38.92;19.45;;;;;;;;;;5078815;28;20044;-89
2022/11/24 08:40:50;;;;;;;49.83;25.23;;;;;;;;;;5078809;28;20060;-89
2022/11/24 08:43:18;;;;;;;55.05;38.25;;;;;;;;;;5102735;27;20057;-89
2022/11/24 08:45:45;;;;;;;75.80;49.80;;;;;;;;;;5119158;27;20410;-89
2022/11/24 08:48:12;;;;;;;74.18;48.60;;;;;;;;;;5119200;27;20047;-89
2022/11/24 08:50:39;;;;;;;84.97;53.58;;;;;;;;;;5119354;27;20054;-89
2022/11/24 08:53:07;;;;;;;38.20;24.05;;;;;;;;;;5122638;27;20047;-89
2022/11/24 08:55:34;;;;;;;47.15;24.52;;;;;;;;;;5127254;27;20047;-89
2022/11/24 08:58:01;;;;;;;44.67;29.95;;;;;;;;;;5126451;27;20061;-89
2022/11/24 09:00:28;;;;;;;51.80;29.27;;;;;;;;;;5119647;27;20407;-89
2022/11/24 09:02:56;;;;;;;35.22;22.00;;;;;;;;;;5115864;27;20499;-89
2022/11/24 09:05:24;;;;;;;34.97;19.77;;;;;;;;;;5098259;28;20479;-89
2022/11/24 09:08:11;;;;;;;31.85;20.90;;;;;;;;;;5101158;28;20491;-89
2022/11/24 09:10:39;;;;;;;53.33;30.38;;;;;;;;;;5116233;28;20051;-89
2022/11/24 09:13:06;;;;;;;68.10;39.35;;;;;;;;;;5098302;28;20044;-89
2022/11/24 09:15:34;;;;;;;58.08;39.67;;;;;;;;;;5098283;28;20043;-88
2022/11/24 09:18:02;;;;;;;57.78;35.67;;;;;;;;;;5116014;28;20059;-88
2022/11/24 09:20:29;;;;;;;54.30;36.35;;;;;;;;;;5098982;28;20050;-89
2022/11/24 09:22:56;;;;;;;41.67;27.13;;;;;;;;;;5132313;28;20051;-88
2022/11/24 09:25:23;;;;;;;73.85;46.33;;;;;;;;;;5100072;28;20043;-89
2022/11/24 09:27:51;;;;;;;53.83;33.60;;;;;;;;;;5121605;28;20060;-89
2022/11/24 09:30:19;;;;;;;52.65;32.10;;;;;;;;;;5098041;28;20059;-89
2022/11/24 09:32:46;;;;;;;58.45;37.10;;;;;;;;;;5097907;28;20134;-89
2022/11/24 09:35:14;;;;;;;60.28;36.70;;;;;;;;;;5115850;28;20047;-89
2022/11/24 09:37:43;;;;;;;44.55;27.42;;;;;;;;;;5097845;28;20058;-89
2022/11/24 09:40:13;;;;;;;90.55;41.05;;;;;;;;;;5097857;28;20048;-89
2022/11/24 09:42:58;;;;;;;87.38;36.30;;;;;;;;;;5097816;28;20057;-88
2022/11/24 09:45:35;;;;;;;70.95;45.85;;;;;;;;;;5093902;28;20052;-89
2022/11/24 09:48:25;;;;;;;78.20;55.63;;;;;;;;;;5094493;28;20052;-89
2022/11/24 09:50:53;;;;;;;107.65;71.72;;;;;;;;;;5094344;28;20051;-88
2022/11/24 09:53:30;;;;;;;98.55;65.35;;;;;;;;;;5094004;28;20157;-89
2022/11/24 09:55:59;;;;;;;81.13;56.45;;;;;;;;;;5093951;28;20099;-89
2022/11/24 09:58:32;;;;;;;69.75;47.25;;;;;;;;;;5094075;28;20050;-89
2022/11/24 10:00:59;;;;;;;74.07;53.63;;;;;;;;;;5094007;28;20476;-87
2022/11/24 10:03:38;;;;;;;81.13;57.00;;;;;;;;;;5093745;28;20430;-89
2022/11/24 10:06:16;;;;;;;83.78;59.33;;;;;;;;;;5093827;28;20123;-89
2022/11/24 10:09:02;;;;;;;87.28;63.75;;;;;;;;;;5093601;28;20058;-89
2022/11/24 10:11:55;;;;;;;87.55;59.25;;;;;;;;;;5093487;28;20048;-89
2022/11/24 10:14:22;;;;;;;67.43;52.10;;;;;;;;;;5094060;28;20048;-89
2022/11/24 10:16:49;;;;;;;49.72;40.83;;;;;;;;;;5092231;28;20476;-88
2022/11/24 10:19:23;;;;;;;51.10;36.15;;;;;;;;;;5092991;28;20047;-88
2022/11/24 10:22:02;;;;;;;49.53;29.95;;;;;;;;;;5093746;28;20514;-88
2022/11/24 10:24:31;;;;;;;41.95;28.30;;;;;;;;;;5093402;28;20063;-88
2022/11/24 10:27:02;;;;;;;37.28;24.55;;;;;;;;;;5093681;28;20143;-88
2022/11/24 10:29:40;;;;;;;28.73;20.83;;;;;;;;;;5093289;28;20051;-89
2022/11/24 10:32:13;;;;;;;27.90;16.77;;;;;;;;;;5093424;28;20058;-89
2022/11/24 10:34:43;;;;;;;31.90;17.80;;;;;;;;;;5093228;28;20323;-89
2022/11/24 10:37:10;;;;;;;27.60;15.82;;;;;;;;;;5112421;28;20039;-88
2022/11/24 10:39:40;;;;;;;25.13;14.20;;;;;;;;;;5095543;28;20420;-88
2022/11/24 10:42:17;;;;;;;29.42;15.25;;;;;;;;;;5093065;28;20318;-89
2022/11/24 10:44:45;;;;;;;23.92;13.52;;;;;;;;;;5095333;28;20048;-87
2022/11/24 10:47:21;;;;;;;24.30;14.52;;;;;;;;;;5096499;28;20050;-88
2022/11/24 10:49:55;;;;;;;20.52;13.93;;;;;;;;;;5095311;28;20487;-88
2022/11/24 10:52:22;;;;;;;;;;;;;;;;;;5096415;28;20040;-88
2022/11/24 10:54:57;;;;;;;32.15;22.08;;;;;;;;;;5096212;28;19926;-88
2022/11/24 10:57:34;;;;;;;41.65;20.38;;;;;;;;;;5114193;28;20102;-88
2022/11/24 11:00:04;;;;;;;29.92;22.10;;;;;;;;;;5096444;28;20047;-88
2022/11/24 11:02:31;;;;;;;28.17;21.60;;;;;;;;;;5096622;28;20052;-88
2022/11/24 11:05:18;;;;;;;34.22;22.70;;;;;;;;;;5096055;28;20104;-88
2022/11/24 11:07:46;;;;;;;30.65;20.05;;;;;;;;;;5096196;28;20054;-88
2022/11/24 11:10:18;;;;;;;26.98;18.92;;;;;;;;;;5096067;28;20590;-88
2022/11/24 11:12:45;;;;;;;30.20;16.80;;;;;;;;;;5096488;28;20041;-88
2022/11/24 11:15:24;;;;;;;27.48;14.48;;;;;;;;;;5095829;28;20131;-88
2022/11/24 11:17:53;;;;;;;20.70;11.55;;;;;;;;;;5096103;28;20128;-88
2022/11/24 11:20:28;;;;;;;24.17;12.90;;;;;;;;;;5095790;28;20484;-88
2022/11/24 11:22:56;;;;;;;21.02;12.23;;;;;;;;;;5096200;28;20054;-88
2022/11/24 11:25:35;;;;;;;27.08;12.80;;;;;;;;;;5096020;28;20062;-87
2022/11/24 11:28:17;;;;;;;17.15;12.25;;;;;;;;;;5095814;28;20419;-88
2022/11/24 11:30:58;;;;;;;19.02;12.18;;;;;;;;;;5096191;28;20488;-88
2022/11/24 11:34:12;;;;;;;21.98;13.18;;;;;;;;;;5098735;28;20056;-88
2022/11/24 11:36:52;;;;;;;20.38;10.52;;;;;;;;;;5097609;28;20130;-88
2022/11/24 11:39:24;;;;;;;21.40;11.88;;;;;;;;;;5095746;28;20589;-88
2022/11/24 11:41:58;;;;;;;21.40;11.98;;;;;;;;;;5095873;28;20039;-88
2022/11/24 11:44:35;;;;;;;21.85;13.38;;;;;;;;;;5095666;28;20043;-88
2022/11/24 11:47:08;;;;;;;20.13;13.25;;;;;;;;;;5099954;28;20054;-87
2022/11/24 11:49:38;;;;;;;25.50;12.50;;;;;;;;;;5120624;28;20047;-88
2022/11/24 11:52:23;;;;;;;23.48;11.23;;;;;;;;;;5133521;28;20035;-88
2022/11/24 11:54:51;;;;;;;20.92;10.80;;;;;;;;;;5100277;28;20044;-88
2022/11/24 11:57:30;;;;;;;23.30;12.80;;;;;;;;;;5099774;28;20058;-88
2022/11/24 12:00:04;;;;;;;25.80;11.75;;;;;;;;;;5100172;28;20054;-88
2022/11/24 12:02:47;;;;;;;24.10;11.50;;;;;;;;;;5099698;28;20054;-88
2022/11/24 12:05:38;;;;;;;17.70;9.30;;;;;;;;;;5100160;28;20047;-88
2022/11/24 12:08:15;;;;;;;18.90;10.02;;;;;;;;;;5117308;28;20043;-88
2022/11/24 12:10:55;;;;;;;23.05;10.18;;;;;;;;;;5100197;28;20079;-88
2022/11/24 12:13:42;;;;;;;28.08;16.48;;;;;;;;;;5099492;28;20055;-88
2022/11/24 12:16:19;;;;;;;19.80;12.23;;;;;;;;;;5099597;28;20332;-87
2022/11/24 12:18:59;;;;;;;21.33;9.48;;;;;;;;;;5099585;28;20406;-87
2022/11/24 12:21:35;;;;;;;16.98;7.57;;;;;;;;;;5099180;28;20053;-88
2022/11/24 12:24:06;;;;;;;24.63;9.38;;;;;;;;;;5099336;28;20054;-87
2022/11/24 12:26:52;;;;;;;20.17;7.18;;;;;;;;;;5098841;28;20048;-87
2022/11/24 12:29:25;;;;;;;17.90;8.52;;;;;;;;;;5099292;28;20112;-87
2022/11/24 12:32:11;;;;;;;18.08;7.97;;;;;;;;;;5099280;28;20051;-87
2022/11/24 12:34:59;;;;;;;20.00;8.70;;;;;;;;;;5098993;28;20407;-87
2022/11/24 12:37:45;;;;;;;18.60;8.10;;;;;;;;;;5049505;28;20051;-88
2022/11/24 12:40:25;;;;;;;17.15;7.00;;;;;;;;;;5099035;28;20054;-87
2022/11/24 12:42:58;;;;;;;22.63;9.50;;;;;;;;;;5099121;28;20059;-87
2022/11/24 12:45:41;;;;;;;15.88;7.53;;;;;;;;;;5098540;28;20127;-87
2022/11/24 12:48:15;;;;;;;18.73;7.15;;;;;;;;;;5116455;28;20458;-88
2022/11/24 12:50:43;;;;;;;12.18;4.95;;;;;;;;;;5098225;28;20054;-88
2022/11/24 12:53:19;;;;;;;12.07;4.72;;;;;;;;;;5098487;28;20052;-87
2022/11/24 12:55:46;;;;;;;10.27;4.18;;;;;;;;;;5098543;28;20460;-88
2022/11/24 12:58:16;;;;;;;10.93;5.00;;;;;;;;;;5097639;28;20044;-88
2022/11/24 13:00:53;;;;;;;11.82;5.68;;;;;;;;;;5098945;28;20564;-87
2022/11/24 13:03:26;;;;;;;18.63;5.65;;;;;;;;;;5116425;28;20039;-87
2022/11/24 13:06:00;;;;;;;11.35;5.55;;;;;;;;;;5117018;28;20048;-87
2022/11/24 13:08:29;;;;;;;15.65;5.65;;;;;;;;;;5099965;28;20130;-87
2022/11/24 13:11:16;;;;;;;14.02;5.93;;;;;;;;;;5115998;28;20052;-87
2022/11/24 13:13:58;;;;;;;13.68;5.78;;;;;;;;;;5097987;28;20051;-87
2022/11/24 13:16:26;;;;;;;12.38;4.25;;;;;;;;;;5097881;28;20055;-87
2022/11/24 13:19:14;;;;;;;10.75;4.95;;;;;;;;;;5115868;28;20043;-87
2022/11/24 13:21:44;;;;;;;19.67;6.20;;;;;;;;;;5116329;28;20082;-86
2022/11/24 13:24:17;;;;;;;15.55;6.20;;;;;;;;;;5098085;28;20056;-87
2022/11/24 13:26:51;;;;;;;18.83;6.57;;;;;;;;;;5097875;28;20048;-87
2022/11/24 13:29:27;;;;;;;20.83;6.60;;;;;;;;;;5097543;28;20051;-87
2022/11/24 13:31:55;;;;;;;13.45;6.45;;;;;;;;;;5115515;28;20057;-86
2022/11/24 13:34:48;;;;;;;18.60;8.43;;;;;;;;;;5097748;28;20083;-87
2022/11/24 13:37:20;;;;;;;32.63;4.65;;;;;;;;;;5084026;28;20055;-87
2022/11/24 13:40:10;;;;;;;19.98;6.25;;;;;;;;;;5099357;28;20051;-87
2022/11/24 13:42:56;;;;;;;14.60;4.38;;;;;;;;;;5097630;28;20434;-87
2022/11/24 13:45:39;;;;;;;12.45;3.60;;;;;;;;;;5097095;28;20051;-86
2022/11/24 13:48:19;;;;;;;14.80;5.07;;;;;;;;;;5097755;28;20549;-88
2022/11/24 13:50:54;;;;;;;20.75;5.88;;;;;;;;;;5115340;28;20066;-88
2022/11/24 13:53:33;;;;;;;18.17;4.68;;;;;;;;;;5097230;28;20126;-88
2022/11/24 13:56:08;;;;;;;24.33;4.70;;;;;;;;;;5097200;28;20055;-88
2022/11/24 13:58:41;;;;;;;20.58;4.68;;;;;;;;;;5096871;28;20414;-88
2022/11/24 14:01:19;;;;;;;14.85;5.53;;;;;;;;;;5097120;28;20067;-88
2022/11/24 14:04:02;;;;;;;10.82;4.07;;;;;;;;;;5115094;28;20055;-88
2022/11/24 14:06:55;;;;;;;6.22;2.47;;;;;;;;;;5100536;28;20120;-88
2022/11/24 14:09:43;;;;;;;9.52;3.20;;;;;;;;;;5097759;28;20097;-88
2022/11/24 14:12:21;;;;;;;10.35;3.20;;;;;;;;;;5097243;28;20055;-87
2022/11/24 14:14:54;;;;;;;8.43;2.58;;;;;;;;;;5115007;28;20504;-89
2022/11/24 14:17:28;;;;;;;11.93;3.60;;;;;;;;;;5098583;28;20070;-89
2022/11/24 14:19:56;;;;;;;14.27;3.92;;;;;;;;;;5119307;28;20107;-88
2022/11/24 14:22:26;;;;;;;12.93;4.18;;;;;;;;;;5103724;28;20047;-88
2022/11/24 14:24:57;;;;;;;14.43;4.13;;;;;;;;;;5097116;28;20040;-88
2022/11/24 14:27:29;;;;;;;19.38;3.90;;;;;;;;;;5097177;28;20048;-89
2022/11/24 14:29:58;;;;;;;22.85;4.40;;;;;;;;;;5097125;28;20047;-88
2022/11/24 14:32:25;;;;;;;12.60;4.53;;;;;;;;;;5097181;28;20502;-89
2022/11/24 14:34:53;;;;;;;13.95;5.53;;;;;;;;;;5096641;28;20138;-88
2022/11/24 14:37:20;;;;;;;9.98;2.80;;;;;;;;;;5096585;28;20048;-88
2022/11/24 14:39:47;;;;;;;9.07;4.65;;;;;;;;;;5096594;28;20406;-88
2022/11/24 14:42:20;;;;;;;12.73;5.57;;;;;;;;;;5096573;28;20051;-89
2022/11/24 14:44:50;;;;;;;13.25;3.88;;;;;;;;;;5096291;28;20411;-89
2022/11/24 14:47:21;;;;;;;8.48;2.78;;;;;;;;;;5096678;28;20051;-89
2022/11/24 14:49:57;;;;;;;8.05;2.28;;;;;;;;;;5098381;28;20047;-89
2022/11/24 14:52:25;;;;;;;4.95;1.55;;;;;;;;;;5096223;28;20085;-88
2022/11/24 14:54:54;;;;;;;7.65;2.20;;;;;;;;;;5096652;28;20048;-90